sensor_id;sensor_type;location;lat;lon;timestamp;P1;durP1;ratioP1;P2;durP2;ratioP2
63690;SDS011;49837;57.280;27.070;2022-07-29T00:00:30;4.7;;;1.8;;
63690;SDS011;49837;57.280;27.070;2022-07-29T00:01:30;5.5;;;1.8;;
63690;SDS011;49837;57.280;27.070;2022-07-29T00:02:31;2.4;;;1.8;;
63690;SDS011;49837;57.280;27.070;2022-07-29T00:03:31;5.0;;;2.0;;
63690;SDS011;49837;57.280;27.070;2022-07-29T00:04:33;4.9;;;2.1;;
63690;SDS011;49837;57.280;27.070;2022-07-29T00:05:32;9.0;;;1.9;;
63690;SDS011;49837;57.280;27.070;2022-07-29T00:06:32;3.8;;;1.8;;
63690;SDS011;49837;57.280;27.070;2022-07-29T00:07:33;8.8;;;2.0;;
63690;SDS011;49837;57.280;27.070;2022-07-29T00:08:33;4.4;;;1.9;;
63690;SDS011;49837;57.280;27.070;2022-07-29T00:09:34;2.8;;;1.7;;
63690;SDS011;49837;57.280;27.070;2022-07-29T00:10:37;3.4;;;1.6;;
63690;SDS011;49837;57.280;27.070;2022-07-29T00:11:37;4.0;;;1.9;;
63690;SDS011;49837;57.280;27.070;2022-07-29T00:12:38;3.5;;;1.9;;
63690;SDS011;49837;57.280;27.070;2022-07-29T00:13:38;5.0;;;1.9;;
63690;SDS011;49837;57.280;27.070;2022-07-29T00:14:38;4.9;;;1.8;;
63690;SDS011;49837;57.280;27.070;2022-07-29T00:15:39;5.4;;;2.0;;
63690;SDS011;49837;57.280;27.070;2022-07-29T00:16:39;5.3;;;2.3;;
63690;SDS011;49837;57.280;27.070;2022-07-29T00:17:40;5.0;;;1.9;;
63690;SDS011;49837;57.280;27.070;2022-07-29T00:18:40;6.5;;;1.9;;
63690;SDS011;49837;57.280;27.070;2022-07-29T00:19:41;2.5;;;1.7;;
63690;SDS011;49837;57.280;27.070;2022-07-29T00:20:41;4.8;;;2.0;;
63690;SDS011;49837;57.280;27.070;2022-07-29T00:21:42;4.9;;;1.9;;
63690;SDS011;49837;57.280;27.070;2022-07-29T00:22:42;6.4;;;2.2;;
63690;SDS011;49837;57.280;27.070;2022-07-29T00:23:42;8.0;;;2.2;;
63690;SDS011;49837;57.280;27.070;2022-07-29T00:24:43;7.2;;;2.0;;
63690;SDS011;49837;57.280;27.070;2022-07-29T00:25:43;3.0;;;2.0;;
63690;SDS011;49837;57.280;27.070;2022-07-29T00:26:44;4.9;;;2.1;;
63690;SDS011;49837;57.280;27.070;2022-07-29T00:27:44;5.1;;;1.7;;
63690;SDS011;49837;57.280;27.070;2022-07-29T00:28:45;6.9;;;2.2;;
63690;SDS011;49837;57.280;27.070;2022-07-29T00:29:45;4.9;;;1.8;;
63690;SDS011;49837;57.280;27.070;2022-07-29T00:30:46;5.8;;;2.0;;
63690;SDS011;49837;57.280;27.070;2022-07-29T00:31:46;4.4;;;2.1;;
63690;SDS011;49837;57.280;27.070;2022-07-29T00:32:46;5.0;;;2.2;;
63690;SDS011;49837;57.280;27.070;2022-07-29T00:33:47;6.2;;;2.2;;
63690;SDS011;49837;57.280;27.070;2022-07-29T00:34:47;4.8;;;1.9;;
63690;SDS011;49837;57.280;27.070;2022-07-29T00:35:48;4.3;;;1.7;;
63690;SDS011;49837;57.280;27.070;2022-07-29T00:36:48;5.6;;;2.4;;
63690;SDS011;49837;57.280;27.070;2022-07-29T00:37:49;4.7;;;2.0;;
63690;SDS011;49837;57.280;27.070;2022-07-29T00:38:50;4.5;;;2.1;;
63690;SDS011;49837;57.280;27.070;2022-07-29T00:39:49;10.3;;;2.0;;
63690;SDS011;49837;57.280;27.070;2022-07-29T00:40:50;3.4;;;2.1;;
63690;SDS011;49837;57.280;27.070;2022-07-29T00:41:50;3.3;;;2.2;;
63690;SDS011;49837;57.280;27.070;2022-07-29T00:42:51;3.9;;;1.9;;
63690;SDS011;49837;57.280;27.070;2022-07-29T00:43:51;7.3;;;1.9;;
63690;SDS011;49837;57.280;27.070;2022-07-29T00:44:52;5.7;;;2.0;;
63690;SDS011;49837;57.280;27.070;2022-07-29T00:45:52;8.0;;;2.2;;
63690;SDS011;49837;57.280;27.070;2022-07-29T00:46:53;5.9;;;2.2;;
63690;SDS011;49837;57.280;27.070;2022-07-29T00:47:53;5.9;;;2.4;;
63690;SDS011;49837;57.280;27.070;2022-07-29T00:48:53;5.6;;;2.3;;
63690;SDS011;49837;57.280;27.070;2022-07-29T00:49:54;8.3;;;2.4;;
63690;SDS011;49837;57.280;27.070;2022-07-29T00:50:55;3.0;;;2.0;;
63690;SDS011;49837;57.280;27.070;2022-07-29T00:51:55;5.7;;;2.4;;
63690;SDS011;49837;57.280;27.070;2022-07-29T00:52:55;5.3;;;2.7;;
63690;SDS011;49837;57.280;27.070;2022-07-29T00:53:56;6.3;;;2.7;;
63690;SDS011;49837;57.280;27.070;2022-07-29T00:54:56;4.2;;;2.5;;
63690;SDS011;49837;57.280;27.070;2022-07-29T00:55:57;7.1;;;2.9;;
63690;SDS011;49837;57.280;27.070;2022-07-29T00:57:00;4.7;;;2.4;;
63690;SDS011;49837;57.280;27.070;2022-07-29T00:57:58;4.6;;;2.6;;
63690;SDS011;49837;57.280;27.070;2022-07-29T00:58:59;5.6;;;2.5;;
63690;SDS011;49837;57.280;27.070;2022-07-29T00:59:59;4.9;;;2.5;;
63690;SDS011;49837;57.280;27.070;2022-07-29T01:01:00;8.2;;;2.9;;
63690;SDS011;49837;57.280;27.070;2022-07-29T01:02:00;5.8;;;2.3;;
63690;SDS011;49837;57.280;27.070;2022-07-29T01:03:00;4.2;;;2.3;;
63690;SDS011;49837;57.280;27.070;2022-07-29T01:04:01;5.6;;;3.0;;
63690;SDS011;49837;57.280;27.070;2022-07-29T01:05:02;4.8;;;2.6;;
63690;SDS011;49837;57.280;27.070;2022-07-29T01:06:02;9.2;;;2.8;;
63690;SDS011;49837;57.280;27.070;2022-07-29T01:07:02;4.1;;;2.3;;
63690;SDS011;49837;57.280;27.070;2022-07-29T01:08:03;6.7;;;2.6;;
63690;SDS011;49837;57.280;27.070;2022-07-29T01:09:03;6.0;;;2.8;;
63690;SDS011;49837;57.280;27.070;2022-07-29T01:10:04;5.1;;;2.6;;
63690;SDS011;49837;57.280;27.070;2022-07-29T01:11:04;4.0;;;2.4;;
63690;SDS011;49837;57.280;27.070;2022-07-29T01:12:05;4.5;;;2.6;;
63690;SDS011;49837;57.280;27.070;2022-07-29T01:13:05;5.1;;;2.5;;
63690;SDS011;49837;57.280;27.070;2022-07-29T01:14:06;5.5;;;2.4;;
63690;SDS011;49837;57.280;27.070;2022-07-29T01:15:07;8.7;;;2.5;;
63690;SDS011;49837;57.280;27.070;2022-07-29T01:16:09;4.6;;;2.5;;
63690;SDS011;49837;57.280;27.070;2022-07-29T01:17:13;7.2;;;2.7;;
63690;SDS011;49837;57.280;27.070;2022-07-29T01:22:24;6.9;;;2.7;;
63690;SDS011;49837;57.280;27.070;2022-07-29T01:24:33;6.6;;;2.5;;
63690;SDS011;49837;57.280;27.070;2022-07-29T01:26:52;5.1;;;2.2;;
63690;SDS011;49837;57.280;27.070;2022-07-29T01:27:48;4.8;;;2.6;;
63690;SDS011;49837;57.280;27.070;2022-07-29T01:29:41;4.0;;;2.2;;
63690;SDS011;49837;57.280;27.070;2022-07-29T01:30:42;5.6;;;2.2;;
63690;SDS011;49837;57.280;27.070;2022-07-29T01:32:01;7.1;;;2.0;;
63690;SDS011;49837;57.280;27.070;2022-07-29T01:32:44;6.0;;;2.2;;
63690;SDS011;49837;57.280;27.070;2022-07-29T01:33:48;6.1;;;2.1;;
63690;SDS011;49837;57.280;27.070;2022-07-29T01:34:48;4.3;;;2.3;;
63690;SDS011;49837;57.280;27.070;2022-07-29T01:35:50;5.8;;;2.2;;
63690;SDS011;49837;57.280;27.070;2022-07-29T01:36:52;3.4;;;2.2;;
63690;SDS011;49837;57.280;27.070;2022-07-29T01:38:08;8.1;;;2.5;;
63690;SDS011;49837;57.280;27.070;2022-07-29T01:39:02;5.5;;;2.3;;
63690;SDS011;49837;57.280;27.070;2022-07-29T01:40:01;5.0;;;2.5;;
63690;SDS011;49837;57.280;27.070;2022-07-29T01:41:19;4.6;;;2.2;;
63690;SDS011;49837;57.280;27.070;2022-07-29T01:43:06;4.2;;;2.1;;
63690;SDS011;49837;57.280;27.070;2022-07-29T01:44:15;6.1;;;2.3;;
63690;SDS011;49837;57.280;27.070;2022-07-29T01:46:14;4.4;;;2.2;;
63690;SDS011;49837;57.280;27.070;2022-07-29T01:47:17;9.6;;;2.7;;
63690;SDS011;49837;57.280;27.070;2022-07-29T01:48:24;6.0;;;1.9;;
63690;SDS011;49837;57.280;27.070;2022-07-29T01:49:26;3.2;;;1.9;;
63690;SDS011;49837;57.280;27.070;2022-07-29T01:50:40;6.2;;;2.1;;
63690;SDS011;49837;57.280;27.070;2022-07-29T01:51:31;2.1;;;1.7;;
63690;SDS011;49837;57.280;27.070;2022-07-29T01:52:37;9.0;;;2.2;;
63690;SDS011;49837;57.280;27.070;2022-07-29T01:53:36;6.0;;;1.7;;
63690;SDS011;49837;57.280;27.070;2022-07-29T01:54:42;6.9;;;2.0;;
63690;SDS011;49837;57.280;27.070;2022-07-29T01:55:44;4.2;;;1.9;;
63690;SDS011;49837;57.280;27.070;2022-07-29T01:56:43;7.8;;;1.7;;
63690;SDS011;49837;57.280;27.070;2022-07-29T01:57:45;9.3;;;1.8;;
63690;SDS011;49837;57.280;27.070;2022-07-29T01:58:45;7.2;;;2.0;;
63690;SDS011;49837;57.280;27.070;2022-07-29T01:59:46;6.5;;;1.5;;
63690;SDS011;49837;57.280;27.070;2022-07-29T02:00:46;6.2;;;2.0;;
63690;SDS011;49837;57.280;27.070;2022-07-29T02:01:47;2.3;;;1.7;;
63690;SDS011;49837;57.280;27.070;2022-07-29T02:02:50;5.4;;;1.8;;
63690;SDS011;49837;57.280;27.070;2022-07-29T02:03:51;2.9;;;1.8;;
63690;SDS011;49837;57.280;27.070;2022-07-29T02:04:51;4.2;;;1.8;;
63690;SDS011;49837;57.280;27.070;2022-07-29T02:05:52;2.9;;;1.5;;
63690;SDS011;49837;57.280;27.070;2022-07-29T02:06:52;3.9;;;1.7;;
63690;SDS011;49837;57.280;27.070;2022-07-29T02:07:53;4.2;;;1.7;;
63690;SDS011;49837;57.280;27.070;2022-07-29T02:08:54;5.4;;;1.6;;
63690;SDS011;49837;57.280;27.070;2022-07-29T02:09:55;5.4;;;1.5;;
63690;SDS011;49837;57.280;27.070;2022-07-29T02:10:55;4.9;;;1.8;;
63690;SDS011;49837;57.280;27.070;2022-07-29T02:11:56;8.2;;;1.4;;
63690;SDS011;49837;57.280;27.070;2022-07-29T02:12:57;5.0;;;1.6;;
63690;SDS011;49837;57.280;27.070;2022-07-29T02:13:57;4.7;;;1.6;;
63690;SDS011;49837;57.280;27.070;2022-07-29T02:14:58;7.5;;;1.5;;
63690;SDS011;49837;57.280;27.070;2022-07-29T02:15:58;6.6;;;1.6;;
63690;SDS011;49837;57.280;27.070;2022-07-29T02:16:58;2.9;;;1.3;;
63690;SDS011;49837;57.280;27.070;2022-07-29T02:18:02;2.3;;;1.4;;
63690;SDS011;49837;57.280;27.070;2022-07-29T02:19:00;6.4;;;1.5;;
63690;SDS011;49837;57.280;27.070;2022-07-29T02:20:01;4.4;;;1.3;;
63690;SDS011;49837;57.280;27.070;2022-07-29T02:21:01;1.4;;;1.3;;
63690;SDS011;49837;57.280;27.070;2022-07-29T02:22:01;8.6;;;1.9;;
63690;SDS011;49837;57.280;27.070;2022-07-29T02:23:02;4.3;;;1.4;;
63690;SDS011;49837;57.280;27.070;2022-07-29T02:24:02;5.9;;;1.5;;
63690;SDS011;49837;57.280;27.070;2022-07-29T02:25:02;3.4;;;1.4;;
63690;SDS011;49837;57.280;27.070;2022-07-29T02:26:04;2.0;;;1.1;;
63690;SDS011;49837;57.280;27.070;2022-07-29T02:27:05;5.7;;;1.2;;
63690;SDS011;49837;57.280;27.070;2022-07-29T02:28:05;4.3;;;1.2;;
63690;SDS011;49837;57.280;27.070;2022-07-29T02:29:06;2.3;;;1.2;;
63690;SDS011;49837;57.280;27.070;2022-07-29T02:30:06;2.8;;;1.5;;
63690;SDS011;49837;57.280;27.070;2022-07-29T02:31:06;3.9;;;1.6;;
63690;SDS011;49837;57.280;27.070;2022-07-29T02:32:07;4.1;;;1.3;;
63690;SDS011;49837;57.280;27.070;2022-07-29T02:33:08;4.5;;;1.6;;
63690;SDS011;49837;57.280;27.070;2022-07-29T02:34:09;4.2;;;1.8;;
63690;SDS011;49837;57.280;27.070;2022-07-29T02:35:09;5.7;;;1.7;;
63690;SDS011;49837;57.280;27.070;2022-07-29T02:36:10;4.4;;;1.3;;
63690;SDS011;49837;57.280;27.070;2022-07-29T02:37:10;3.7;;;1.3;;
63690;SDS011;49837;57.280;27.070;2022-07-29T02:38:12;1.8;;;1.3;;
63690;SDS011;49837;57.280;27.070;2022-07-29T02:39:12;2.2;;;1.3;;
63690;SDS011;49837;57.280;27.070;2022-07-29T02:40:13;8.0;;;1.5;;
63690;SDS011;49837;57.280;27.070;2022-07-29T02:41:15;7.8;;;1.4;;
63690;SDS011;49837;57.280;27.070;2022-07-29T02:42:16;10.7;;;1.6;;
63690;SDS011;49837;57.280;27.070;2022-07-29T02:43:16;6.5;;;1.5;;
63690;SDS011;49837;57.280;27.070;2022-07-29T02:44:17;6.3;;;1.4;;
63690;SDS011;49837;57.280;27.070;2022-07-29T02:45:17;1.4;;;1.0;;
63690;SDS011;49837;57.280;27.070;2022-07-29T02:46:20;4.8;;;1.3;;
63690;SDS011;49837;57.280;27.070;2022-07-29T02:47:21;2.2;;;1.0;;
63690;SDS011;49837;57.280;27.070;2022-07-29T02:48:27;4.8;;;1.2;;
63690;SDS011;49837;57.280;27.070;2022-07-29T02:49:31;4.9;;;1.2;;
63690;SDS011;49837;57.280;27.070;2022-07-29T02:50:30;8.3;;;1.6;;
63690;SDS011;49837;57.280;27.070;2022-07-29T02:51:40;3.6;;;1.4;;
63690;SDS011;49837;57.280;27.070;2022-07-29T02:52:45;1.1;;;1.0;;
63690;SDS011;49837;57.280;27.070;2022-07-29T02:53:37;3.4;;;1.2;;
63690;SDS011;49837;57.280;27.070;2022-07-29T02:54:46;5.3;;;1.5;;
63690;SDS011;49837;57.280;27.070;2022-07-29T02:55:45;4.3;;;1.1;;
63690;SDS011;49837;57.280;27.070;2022-07-29T02:56:47;5.9;;;1.4;;
63690;SDS011;49837;57.280;27.070;2022-07-29T02:57:47;2.1;;;1.1;;
63690;SDS011;49837;57.280;27.070;2022-07-29T02:58:54;3.4;;;1.3;;
63690;SDS011;49837;57.280;27.070;2022-07-29T02:59:57;5.3;;;1.5;;
63690;SDS011;49837;57.280;27.070;2022-07-29T03:00:59;6.8;;;1.2;;
63690;SDS011;49837;57.280;27.070;2022-07-29T03:02:02;4.0;;;1.8;;
63690;SDS011;49837;57.280;27.070;2022-07-29T03:03:03;2.3;;;1.2;;
63690;SDS011;49837;57.280;27.070;2022-07-29T03:04:03;5.2;;;1.2;;
63690;SDS011;49837;57.280;27.070;2022-07-29T03:05:04;5.3;;;2.0;;
63690;SDS011;49837;57.280;27.070;2022-07-29T03:06:06;3.6;;;1.0;;
63690;SDS011;49837;57.280;27.070;2022-07-29T03:07:09;2.8;;;1.2;;
63690;SDS011;49837;57.280;27.070;2022-07-29T03:08:10;4.4;;;1.4;;
63690;SDS011;49837;57.280;27.070;2022-07-29T03:09:10;6.0;;;1.3;;
63690;SDS011;49837;57.280;27.070;2022-07-29T03:10:11;2.6;;;1.4;;
63690;SDS011;49837;57.280;27.070;2022-07-29T03:11:12;9.0;;;1.5;;
63690;SDS011;49837;57.280;27.070;2022-07-29T03:12:12;3.5;;;1.2;;
63690;SDS011;49837;57.280;27.070;2022-07-29T03:13:12;2.3;;;1.1;;
63690;SDS011;49837;57.280;27.070;2022-07-29T03:14:12;2.2;;;1.0;;
63690;SDS011;49837;57.280;27.070;2022-07-29T03:15:13;3.6;;;1.1;;
63690;SDS011;49837;57.280;27.070;2022-07-29T03:16:14;3.0;;;1.0;;
63690;SDS011;49837;57.280;27.070;2022-07-29T03:17:14;3.4;;;1.3;;
63690;SDS011;49837;57.280;27.070;2022-07-29T03:18:14;2.0;;;1.2;;
63690;SDS011;49837;57.280;27.070;2022-07-29T03:19:15;4.3;;;1.1;;
63690;SDS011;49837;57.280;27.070;2022-07-29T03:20:15;5.0;;;1.6;;
63690;SDS011;49837;57.280;27.070;2022-07-29T03:21:16;3.6;;;1.1;;
63690;SDS011;49837;57.280;27.070;2022-07-29T03:22:16;3.5;;;1.1;;
63690;SDS011;49837;57.280;27.070;2022-07-29T03:23:20;4.4;;;1.3;;
63690;SDS011;49837;57.280;27.070;2022-07-29T03:24:25;3.1;;;1.2;;
63690;SDS011;49837;57.280;27.070;2022-07-29T03:25:22;5.8;;;1.2;;
63690;SDS011;49837;57.280;27.070;2022-07-29T03:26:23;2.9;;;1.2;;
63690;SDS011;49837;57.280;27.070;2022-07-29T03:27:23;3.3;;;1.2;;
63690;SDS011;49837;57.280;27.070;2022-07-29T03:28:23;3.7;;;1.1;;
63690;SDS011;49837;57.280;27.070;2022-07-29T03:29:24;3.6;;;1.1;;
63690;SDS011;49837;57.280;27.070;2022-07-29T03:30:25;5.7;;;1.5;;
63690;SDS011;49837;57.280;27.070;2022-07-29T03:31:25;5.1;;;1.2;;
63690;SDS011;49837;57.280;27.070;2022-07-29T03:32:25;8.2;;;1.3;;
63690;SDS011;49837;57.280;27.070;2022-07-29T03:33:26;6.2;;;1.4;;
63690;SDS011;49837;57.280;27.070;2022-07-29T03:34:26;4.5;;;1.2;;
63690;SDS011;49837;57.280;27.070;2022-07-29T03:35:27;5.0;;;1.2;;
63690;SDS011;49837;57.280;27.070;2022-07-29T03:36:27;3.8;;;1.1;;
63690;SDS011;49837;57.280;27.070;2022-07-29T03:37:28;4.7;;;1.1;;
63690;SDS011;49837;57.280;27.070;2022-07-29T03:38:29;7.5;;;1.2;;
63690;SDS011;49837;57.280;27.070;2022-07-29T03:39:31;1.9;;;1.1;;
63690;SDS011;49837;57.280;27.070;2022-07-29T03:40:39;2.5;;;1.1;;
63690;SDS011;49837;57.280;27.070;2022-07-29T03:41:37;3.2;;;1.0;;
63690;SDS011;49837;57.280;27.070;2022-07-29T03:42:38;3.6;;;1.1;;
63690;SDS011;49837;57.280;27.070;2022-07-29T03:43:39;4.1;;;1.0;;
63690;SDS011;49837;57.280;27.070;2022-07-29T03:44:41;2.1;;;1.2;;
63690;SDS011;49837;57.280;27.070;2022-07-29T03:45:42;4.1;;;1.2;;
63690;SDS011;49837;57.280;27.070;2022-07-29T03:46:42;3.3;;;1.3;;
63690;SDS011;49837;57.280;27.070;2022-07-29T03:47:45;2.5;;;0.9;;
63690;SDS011;49837;57.280;27.070;2022-07-29T03:48:44;3.6;;;1.0;;
63690;SDS011;49837;57.280;27.070;2022-07-29T03:49:46;6.1;;;1.1;;
63690;SDS011;49837;57.280;27.070;2022-07-29T03:50:47;9.7;;;1.5;;
63690;SDS011;49837;57.280;27.070;2022-07-29T03:51:47;3.7;;;1.2;;
63690;SDS011;49837;57.280;27.070;2022-07-29T03:52:48;4.2;;;0.9;;
63690;SDS011;49837;57.280;27.070;2022-07-29T03:53:48;4.7;;;1.1;;
63690;SDS011;49837;57.280;27.070;2022-07-29T03:54:49;4.4;;;1.1;;
63690;SDS011;49837;57.280;27.070;2022-07-29T03:55:50;3.8;;;1.2;;
63690;SDS011;49837;57.280;27.070;2022-07-29T03:56:51;3.3;;;1.1;;
63690;SDS011;49837;57.280;27.070;2022-07-29T03:57:52;3.4;;;1.2;;
63690;SDS011;49837;57.280;27.070;2022-07-29T03:58:52;3.5;;;0.9;;
63690;SDS011;49837;57.280;27.070;2022-07-29T03:59:53;4.9;;;1.4;;
63690;SDS011;49837;57.280;27.070;2022-07-29T04:00:54;3.9;;;1.2;;
63690;SDS011;49837;57.280;27.070;2022-07-29T04:01:55;4.3;;;1.1;;
63690;SDS011;49837;57.280;27.070;2022-07-29T04:02:55;2.9;;;1.3;;
63690;SDS011;49837;57.280;27.070;2022-07-29T04:03:55;4.0;;;1.1;;
63690;SDS011;49837;57.280;27.070;2022-07-29T04:04:55;5.2;;;1.3;;
63690;SDS011;49837;57.280;27.070;2022-07-29T04:06:03;4.9;;;1.3;;
63690;SDS011;49837;57.280;27.070;2022-07-29T04:06:57;8.0;;;1.4;;
63690;SDS011;49837;57.280;27.070;2022-07-29T04:07:57;4.2;;;1.3;;
63690;SDS011;49837;57.280;27.070;2022-07-29T04:08:57;6.2;;;1.2;;
63690;SDS011;49837;57.280;27.070;2022-07-29T04:09:58;4.6;;;1.1;;
63690;SDS011;49837;57.280;27.070;2022-07-29T04:10:59;3.9;;;1.2;;
63690;SDS011;49837;57.280;27.070;2022-07-29T04:11:59;4.4;;;1.0;;
63690;SDS011;49837;57.280;27.070;2022-07-29T04:13:00;6.4;;;1.2;;
63690;SDS011;49837;57.280;27.070;2022-07-29T04:14:00;5.6;;;1.2;;
63690;SDS011;49837;57.280;27.070;2022-07-29T04:15:01;3.5;;;1.2;;
63690;SDS011;49837;57.280;27.070;2022-07-29T04:16:01;5.1;;;1.4;;
63690;SDS011;49837;57.280;27.070;2022-07-29T04:17:02;4.6;;;1.1;;
63690;SDS011;49837;57.280;27.070;2022-07-29T04:18:02;4.8;;;1.2;;
63690;SDS011;49837;57.280;27.070;2022-07-29T04:19:02;4.0;;;1.1;;
63690;SDS011;49837;57.280;27.070;2022-07-29T04:20:03;1.8;;;0.9;;
63690;SDS011;49837;57.280;27.070;2022-07-29T04:21:03;3.2;;;1.2;;
63690;SDS011;49837;57.280;27.070;2022-07-29T04:22:04;3.2;;;1.4;;
63690;SDS011;49837;57.280;27.070;2022-07-29T04:23:05;2.2;;;1.0;;
63690;SDS011;49837;57.280;27.070;2022-07-29T04:24:05;5.2;;;1.2;;
63690;SDS011;49837;57.280;27.070;2022-07-29T04:25:05;4.0;;;0.9;;
63690;SDS011;49837;57.280;27.070;2022-07-29T04:26:06;3.8;;;1.2;;
63690;SDS011;49837;57.280;27.070;2022-07-29T04:27:06;4.8;;;1.2;;
63690;SDS011;49837;57.280;27.070;2022-07-29T04:28:07;4.5;;;1.2;;
63690;SDS011;49837;57.280;27.070;2022-07-29T04:29:07;3.8;;;1.2;;
63690;SDS011;49837;57.280;27.070;2022-07-29T04:30:08;2.6;;;1.0;;
63690;SDS011;49837;57.280;27.070;2022-07-29T04:31:08;5.3;;;1.6;;
63690;SDS011;49837;57.280;27.070;2022-07-29T04:32:08;5.6;;;1.7;;
63690;SDS011;49837;57.280;27.070;2022-07-29T04:33:09;3.7;;;1.1;;
63690;SDS011;49837;57.280;27.070;2022-07-29T04:34:09;3.0;;;1.3;;
63690;SDS011;49837;57.280;27.070;2022-07-29T04:35:10;3.6;;;0.9;;
63690;SDS011;49837;57.280;27.070;2022-07-29T04:36:10;4.0;;;1.0;;
63690;SDS011;49837;57.280;27.070;2022-07-29T04:37:15;3.7;;;0.9;;
63690;SDS011;49837;57.280;27.070;2022-07-29T04:38:16;5.5;;;1.1;;
63690;SDS011;49837;57.280;27.070;2022-07-29T04:39:16;4.0;;;1.0;;
63690;SDS011;49837;57.280;27.070;2022-07-29T04:40:19;2.0;;;1.2;;
63690;SDS011;49837;57.280;27.070;2022-07-29T04:41:19;5.4;;;1.2;;
63690;SDS011;49837;57.280;27.070;2022-07-29T04:42:20;4.3;;;1.1;;
63690;SDS011;49837;57.280;27.070;2022-07-29T04:43:23;3.3;;;0.9;;
63690;SDS011;49837;57.280;27.070;2022-07-29T04:44:24;2.5;;;1.0;;
63690;SDS011;49837;57.280;27.070;2022-07-29T04:45:25;3.4;;;1.0;;
63690;SDS011;49837;57.280;27.070;2022-07-29T04:46:25;4.6;;;1.0;;
63690;SDS011;49837;57.280;27.070;2022-07-29T04:47:25;5.2;;;1.4;;
63690;SDS011;49837;57.280;27.070;2022-07-29T04:48:26;4.1;;;0.8;;
63690;SDS011;49837;57.280;27.070;2022-07-29T04:49:26;3.2;;;0.8;;
63690;SDS011;49837;57.280;27.070;2022-07-29T04:50:27;2.8;;;0.9;;
63690;SDS011;49837;57.280;27.070;2022-07-29T04:51:27;2.3;;;0.7;;
63690;SDS011;49837;57.280;27.070;2022-07-29T04:52:28;2.0;;;0.8;;
63690;SDS011;49837;57.280;27.070;2022-07-29T04:53:28;3.4;;;0.9;;
63690;SDS011;49837;57.280;27.070;2022-07-29T04:54:28;4.4;;;1.0;;
63690;SDS011;49837;57.280;27.070;2022-07-29T04:55:29;2.7;;;1.0;;
63690;SDS011;49837;57.280;27.070;2022-07-29T04:56:29;3.5;;;1.1;;
63690;SDS011;49837;57.280;27.070;2022-07-29T04:57:30;5.1;;;1.1;;
63690;SDS011;49837;57.280;27.070;2022-07-29T04:58:30;3.4;;;0.7;;
63690;SDS011;49837;57.280;27.070;2022-07-29T04:59:31;1.8;;;0.7;;
63690;SDS011;49837;57.280;27.070;2022-07-29T05:00:31;4.4;;;0.9;;
63690;SDS011;49837;57.280;27.070;2022-07-29T05:01:31;4.8;;;0.9;;
63690;SDS011;49837;57.280;27.070;2022-07-29T05:02:32;2.5;;;1.0;;
63690;SDS011;49837;57.280;27.070;2022-07-29T05:03:32;1.2;;;0.7;;
63690;SDS011;49837;57.280;27.070;2022-07-29T05:04:33;2.3;;;0.9;;
63690;SDS011;49837;57.280;27.070;2022-07-29T05:05:33;2.6;;;0.9;;
63690;SDS011;49837;57.280;27.070;2022-07-29T05:06:34;5.0;;;1.0;;
63690;SDS011;49837;57.280;27.070;2022-07-29T05:07:34;3.0;;;0.8;;
63690;SDS011;49837;57.280;27.070;2022-07-29T05:08:35;3.6;;;1.0;;
63690;SDS011;49837;57.280;27.070;2022-07-29T05:09:35;1.1;;;0.7;;
63690;SDS011;49837;57.280;27.070;2022-07-29T05:10:35;6.9;;;1.1;;
63690;SDS011;49837;57.280;27.070;2022-07-29T05:11:36;5.0;;;0.8;;
63690;SDS011;49837;57.280;27.070;2022-07-29T05:12:36;2.4;;;0.7;;
63690;SDS011;49837;57.280;27.070;2022-07-29T05:13:37;2.5;;;0.9;;
63690;SDS011;49837;57.280;27.070;2022-07-29T05:14:37;2.5;;;0.8;;
63690;SDS011;49837;57.280;27.070;2022-07-29T05:15:38;4.0;;;0.9;;
63690;SDS011;49837;57.280;27.070;2022-07-29T05:16:38;2.3;;;0.7;;
63690;SDS011;49837;57.280;27.070;2022-07-29T05:17:39;2.1;;;0.7;;
63690;SDS011;49837;57.280;27.070;2022-07-29T05:18:39;3.7;;;0.8;;
63690;SDS011;49837;57.280;27.070;2022-07-29T05:19:40;3.0;;;0.9;;
63690;SDS011;49837;57.280;27.070;2022-07-29T05:20:40;5.9;;;0.9;;
63690;SDS011;49837;57.280;27.070;2022-07-29T05:21:40;4.1;;;0.9;;
63690;SDS011;49837;57.280;27.070;2022-07-29T05:22:41;0.9;;;0.7;;
63690;SDS011;49837;57.280;27.070;2022-07-29T05:23:41;3.5;;;1.0;;
63690;SDS011;49837;57.280;27.070;2022-07-29T05:24:42;1.8;;;0.8;;
63690;SDS011;49837;57.280;27.070;2022-07-29T05:25:42;3.0;;;0.8;;
63690;SDS011;49837;57.280;27.070;2022-07-29T05:26:43;2.3;;;0.9;;
63690;SDS011;49837;57.280;27.070;2022-07-29T05:27:43;2.8;;;0.8;;
63690;SDS011;49837;57.280;27.070;2022-07-29T05:28:44;2.0;;;1.0;;
63690;SDS011;49837;57.280;27.070;2022-07-29T05:29:44;2.8;;;0.8;;
63690;SDS011;49837;57.280;27.070;2022-07-29T05:30:44;1.8;;;0.6;;
63690;SDS011;49837;57.280;27.070;2022-07-29T05:31:45;1.2;;;0.7;;
63690;SDS011;49837;57.280;27.070;2022-07-29T05:32:45;1.5;;;0.9;;
63690;SDS011;49837;57.280;27.070;2022-07-29T05:33:46;5.1;;;0.8;;
63690;SDS011;49837;57.280;27.070;2022-07-29T05:34:46;3.7;;;0.8;;
63690;SDS011;49837;57.280;27.070;2022-07-29T05:35:47;1.5;;;0.6;;
63690;SDS011;49837;57.280;27.070;2022-07-29T05:36:48;3.8;;;0.8;;
63690;SDS011;49837;57.280;27.070;2022-07-29T05:37:48;2.5;;;0.9;;
63690;SDS011;49837;57.280;27.070;2022-07-29T05:38:49;2.5;;;0.8;;
63690;SDS011;49837;57.280;27.070;2022-07-29T05:39:49;3.9;;;0.9;;
63690;SDS011;49837;57.280;27.070;2022-07-29T05:40:49;1.7;;;0.8;;
63690;SDS011;49837;57.280;27.070;2022-07-29T05:41:50;1.6;;;0.9;;
63690;SDS011;49837;57.280;27.070;2022-07-29T05:42:50;1.5;;;0.7;;
63690;SDS011;49837;57.280;27.070;2022-07-29T05:43:51;1.9;;;0.9;;
63690;SDS011;49837;57.280;27.070;2022-07-29T05:44:51;1.4;;;0.6;;
63690;SDS011;49837;57.280;27.070;2022-07-29T05:45:52;3.1;;;0.7;;
63690;SDS011;49837;57.280;27.070;2022-07-29T05:46:52;2.8;;;0.8;;
63690;SDS011;49837;57.280;27.070;2022-07-29T05:47:53;2.3;;;0.8;;
63690;SDS011;49837;57.280;27.070;2022-07-29T05:48:53;1.8;;;0.8;;
63690;SDS011;49837;57.280;27.070;2022-07-29T05:49:54;2.4;;;0.8;;
63690;SDS011;49837;57.280;27.070;2022-07-29T05:50:54;3.0;;;0.8;;
63690;SDS011;49837;57.280;27.070;2022-07-29T05:51:54;2.5;;;0.8;;
63690;SDS011;49837;57.280;27.070;2022-07-29T05:52:55;3.5;;;1.0;;
63690;SDS011;49837;57.280;27.070;2022-07-29T05:53:55;2.6;;;0.7;;
63690;SDS011;49837;57.280;27.070;2022-07-29T05:54:56;1.8;;;0.6;;
63690;SDS011;49837;57.280;27.070;2022-07-29T05:55:56;1.4;;;0.6;;
63690;SDS011;49837;57.280;27.070;2022-07-29T05:56:57;1.9;;;0.7;;
63690;SDS011;49837;57.280;27.070;2022-07-29T05:57:57;3.2;;;0.9;;
63690;SDS011;49837;57.280;27.070;2022-07-29T05:58:58;2.1;;;0.9;;
63690;SDS011;49837;57.280;27.070;2022-07-29T05:59:59;2.4;;;0.8;;
63690;SDS011;49837;57.280;27.070;2022-07-29T06:00:59;2.4;;;0.9;;
63690;SDS011;49837;57.280;27.070;2022-07-29T06:01:59;1.7;;;0.7;;
63690;SDS011;49837;57.280;27.070;2022-07-29T06:03:00;2.1;;;0.7;;
63690;SDS011;49837;57.280;27.070;2022-07-29T06:04:00;1.3;;;0.8;;
63690;SDS011;49837;57.280;27.070;2022-07-29T06:05:01;1.8;;;0.7;;
63690;SDS011;49837;57.280;27.070;2022-07-29T06:06:01;1.7;;;0.5;;
63690;SDS011;49837;57.280;27.070;2022-07-29T06:07:02;2.6;;;0.7;;
63690;SDS011;49837;57.280;27.070;2022-07-29T06:08:02;1.9;;;0.9;;
63690;SDS011;49837;57.280;27.070;2022-07-29T06:09:03;1.2;;;0.7;;
63690;SDS011;49837;57.280;27.070;2022-07-29T06:10:04;2.6;;;0.6;;
63690;SDS011;49837;57.280;27.070;2022-07-29T06:11:04;1.8;;;0.6;;
63690;SDS011;49837;57.280;27.070;2022-07-29T06:12:04;2.7;;;0.8;;
63690;SDS011;49837;57.280;27.070;2022-07-29T06:13:05;1.3;;;0.6;;
63690;SDS011;49837;57.280;27.070;2022-07-29T06:14:05;1.2;;;0.7;;
63690;SDS011;49837;57.280;27.070;2022-07-29T06:15:06;2.0;;;0.6;;
63690;SDS011;49837;57.280;27.070;2022-07-29T06:16:06;1.3;;;0.6;;
63690;SDS011;49837;57.280;27.070;2022-07-29T06:17:06;1.6;;;0.7;;
63690;SDS011;49837;57.280;27.070;2022-07-29T06:18:07;2.0;;;0.7;;
63690;SDS011;49837;57.280;27.070;2022-07-29T06:19:07;1.4;;;0.7;;
63690;SDS011;49837;57.280;27.070;2022-07-29T06:20:08;2.3;;;0.7;;
63690;SDS011;49837;57.280;27.070;2022-07-29T06:21:08;1.2;;;0.4;;